LGTSLWSK

Guest
Details From LGTS - Thessalonik Makedonia
To LWSK - Skopje
Flight Number -
Tags generated
Created
Modified
Stats Distance 106 nm / 196 km
Max Altitude 300 ft / 91 m
Waypoints 3
Social Downloads 4
Likes 0
Share VATSIM

Download

Looking for another format? Having issues loading an existing format? Contact us
Advertisement - Login to hide

Notes

Basic altitude profile: - Ascent Rate: 2500ft/min - Ascent Speed: 250kts - Cruise Altitude: 12000ft - Cruise Speed: 420kts - Descent Rate: 1500ft/min - Descent Speed: 250kts

Route

LGTS SKJ LWSK

ID Type Via Altitude Latitude Longitude Leg Dist Tot Dist Heading (true) Name
O LGTS APT - 0 ft / 0 m 40.51952˚ 22.97202˚ - 0 nm - Thessalonik Makedonia
SKJ VOR - 300 ft / 91 m 41.93500˚ 21.63056˚ 104 nm 104 nm 325° / 324° SKOPJE VOR-DME
O LWSK APT - 0 ft / 0 m 41.96162˚ 21.62137˚ 1 nm 106 nm 346° / 346° Skopje

Altitude Profile

Advertisement - Login to hide

LGTS

Details ICAO LGTS (SKG)
Name Thessalonik Makedonia
Region Greece
Timezone Europe/Athens (UTC+2.0)
Stats Elevation 22 ft / 7 m (AMSL)
Location 40.519522° 22.972017°
Runways 2
Magnetic Variation 4.622° E

METAR

LGTS 141320Z 00000KT CAVOK 19/01 Q1012 NOSIG

Decode

TAF

TAF LGTS 141100Z 1412/1512 VRB03KT 9999 FEW030 PROB30 TEMPO 1502/1508 3000 BR SCT008

Decode

Departure Runways

ID Width Length Bearing (true) Bearing (mag) Surface Threshold Offset Overrun Length
10 164 ft / 50 m 7,990 ft / 2,435 m 103.95° 99.33° Asphalt 0 ft / 0 m 150 ft / 46 m
16 197 ft / 60 m 7,927 ft / 2,416 m 166.35° 161.73° Asphalt 0 ft / 0 m 200 ft / 61 m
28 164 ft / 50 m 7,990 ft / 2,435 m 283.97° 279.35° Asphalt 0 ft / 0 m 150 ft / 46 m
34 197 ft / 60 m 7,927 ft / 2,416 m 346.36° 341.74° Asphalt 0 ft / 0 m 200 ft / 61 m

LWSK

Details ICAO LWSK (SKP)
Name Skopje
Region Macedonia
Timezone Europe/Skopje (UTC+1.0)
Stats Elevation 781 ft / 238 m (AMSL)
Location 41.961619° 21.621372°
Runways 1
Magnetic Variation 4.579° E

METAR

LWSK 141330Z 00000KT 0150 R34/0400N FG VV002 03/03 Q1014 BECMG 0350 OVC003

Decode

TAF

TAF LWSK 141130Z 1412/1512 VRB02KT 0100 FG VV002 PROB30 TEMPO 1412/1416 0800 OVC004

Decode

Destination Runways

ID Width Length Bearing (true) Bearing (mag) Surface Threshold Offset Overrun Length
16 140 ft / 43 m 8,036 ft / 2,449 m 165.46° 160.88° Asphalt 0 ft / 0 m 80 ft / 24 m
34 140 ft / 43 m 8,036 ft / 2,449 m 345.47° 340.89° Asphalt 0 ft / 0 m 80 ft / 24 m

Approach Navaids

Runway Type Ident Frequency Range Bearing (true) Bearing (mag) Slope Elevation
34 Localiser MSK 108.70 MHz 25 nm / 46 km 345.00° 340.42° - 764 ft / 233 m (AMSL)
34 Glidescope MSK 108.70 MHz 25 nm / 46 km 345.00° 340.42° 3.30° 813 ft / 248 m (AMSL)
34 DME MSK 108.70 MHz 50 nm / 93 km - - - 758 ft / 231 m (AMSL)

Popular Alternatives